Adams, Tennessee
Current Conditions -  °F | °C
As of 10:15 PM on Sunday 25 Jan 2015 (Local Time) from KM91 Reporting Station
Overcast Overcast  
Wind Chill: 35°   Ceiling: 800
Heat Index: 43°   Visibility: 4mi
Dew Point: 43°   Wind: 15mph
Humidity: 100%   Direction: 330°NNW
Pressure: 29.71"   Gusts: NA
Location:  36.58°N, 87.07°W
Report Text: KM91 260415Z AUTO 33013KT 4SM BKN008 OVC012 06/06 A2971 RMK
Loading
Personal Weather Stations






























Interactive Weather Map New forecast layout! Learn more

10-Day Weather Forecast

Advertisements
Track Severe Weather on mobile